createdAt,value
2019-04-19T05:18:18.293Z,68.37
2019-04-19T05:20:44.854Z,68.29
2019-04-19T05:23:14.244Z,68.20
2019-04-19T05:25:51.460Z,67.80
2019-04-19T05:28:23.608Z,67.78
2019-04-19T05:30:45.114Z,67.42
2019-04-19T05:33:19.108Z,67.19
2019-04-19T05:36:02.818Z,67.10
2019-04-19T05:38:42.285Z,67.27
2019-04-19T05:41:29.688Z,67.02
2019-04-19T05:44:19.940Z,66.87
2019-04-19T05:46:48.099Z,66.66
2019-04-19T05:49:11.476Z,66.14
2019-04-19T05:51:51.492Z,66.03
2019-04-19T05:54:13.207Z,65.96
2019-04-19T05:56:50.548Z,66.03
2019-04-19T05:59:34.268Z,65.76
2019-04-19T06:02:10.373Z,65.98
2019-04-19T06:04:56.052Z,64.48
2019-04-19T06:07:20.404Z,64.92
2019-04-19T06:09:36.768Z,64.92
2019-04-19T06:12:12.376Z,64.81
2019-04-19T06:15:02.857Z,64.69
2019-04-19T06:17:59.133Z,64.46
2019-04-19T06:20:26.332Z,63.85
2019-04-19T06:23:03.804Z,62.93
2019-04-19T06:25:44.530Z,62.53
2019-04-19T06:30:41.066Z,62.42
2019-04-19T06:33:15.681Z,61.51
2019-04-19T06:35:39.600Z,60.83
2019-04-19T06:37:59.234Z,60.03
2019-04-19T06:40:32.764Z,60.42
2019-04-19T06:43:08.811Z,60.42
2019-04-19T06:45:51.444Z,58.84
2019-04-19T06:48:12.837Z,58.29
2019-04-19T06:50:41.791Z,58.24
2019-04-19T06:53:10.155Z,57.68
2019-04-19T06:55:45.052Z,57.29
2019-04-19T06:58:17.677Z,57.60
2019-04-19T07:00:57.165Z,58.34
2019-04-19T07:03:17.675Z,57.03
2019-04-19T07:06:06.546Z,56.43
2019-04-19T07:11:27.293Z,56.51
2019-04-19T07:13:36.161Z,56.19
2019-04-19T07:16:19.173Z,55.74
2019-04-19T07:18:41.612Z,55.71
2019-04-19T07:21:21.810Z,55.64
2019-04-19T07:23:57.659Z,54.88
2019-04-19T07:26:28.082Z,53.94
2019-04-19T07:28:41.892Z,54.39
2019-04-19T07:31:21.759Z,52.75
2019-04-19T07:34:07.184Z,52.20
2019-04-19T07:36:44.590Z,53.24
2019-04-19T07:39:17.280Z,52.07
2019-04-19T07:41:54.208Z,50.69
2019-04-19T07:44:42.234Z,50.91
2019-04-19T07:47:29.568Z,49.71
2019-04-19T07:49:59.284Z,49.85
2019-04-19T07:52:26.156Z,49.08
2019-04-19T07:55:00.283Z,48.24
2019-04-19T07:58:13.569Z,47.72
2019-04-19T08:00:33.366Z,47.40
2019-04-19T08:05:26.750Z,47.69
2019-04-19T08:10:42.302Z,47.42
2019-04-19T08:13:13.988Z,46.91
2019-04-19T08:18:13.252Z,46.07
2019-04-19T08:28:20.421Z,46.04
2019-04-19T08:30:48.764Z,44.28
2019-04-19T08:33:16.956Z,44.14
2019-04-19T08:35:55.866Z,44.56
2019-04-19T08:38:28.695Z,43.70
2019-04-19T08:41:10.449Z,44.40
2019-04-19T08:43:49.480Z,43.33
2019-04-19T08:46:04.990Z,42.80
2019-04-19T08:49:00.658Z,43.05
2019-04-19T08:51:45.603Z,43.16
2019-04-19T08:54:36.765Z,41.80
2019-04-19T08:56:57.496Z,41.75
2019-04-19T08:59:45.461Z,41.55
2019-04-19T09:02:16.471Z,41.73
2019-04-19T09:04:45.489Z,41.60
2019-04-19T09:10:09.746Z,40.37
2019-04-19T09:12:21.126Z,40.39
2019-04-19T09:15:02.224Z,41.08
2019-04-19T09:17:46.214Z,38.71
2019-04-19T09:22:35.815Z,38.45
2019-04-19T09:24:57.627Z,39.26
2019-04-19T09:27:49.174Z,39.77
2019-04-19T09:30:16.409Z,41.76
2019-04-19T09:32:33.969Z,42.06
2019-04-19T09:35:07.838Z,41.64
2019-04-19T09:37:47.694Z,40.72
2019-04-19T09:40:13.834Z,40.70
2019-04-19T09:42:51.070Z,40.47
2019-04-19T09:45:14.637Z,41.42
2019-04-19T09:47:46.055Z,41.38
2019-04-19T09:50:55.159Z,41.20
2019-04-19T09:54:01.807Z,41.68
2019-04-19T09:56:50.679Z,40.39
2019-04-19T09:59:35.362Z,40.23
2019-04-19T10:02:40.584Z,39.16
2019-04-19T10:05:28.745Z,39.90
2019-04-19T10:08:24.419Z,39.12
2019-04-19T10:11:23.220Z,38.36
2019-04-19T10:14:19.446Z,39.02
2019-04-19T10:17:22.876Z,39.46
2019-04-19T10:20:22.586Z,39.80
2019-04-19T10:23:17.556Z,38.08
2019-04-19T10:26:14.289Z,38.46
2019-04-19T10:29:20.088Z,38.35
2019-04-19T10:32:12.809Z,37.25
2019-04-19T10:35:09.431Z,36.83
2019-04-19T10:38:05.310Z,37.36
2019-04-19T10:41:04.053Z,37.20
2019-04-19T10:44:08.219Z,37.81
2019-04-19T10:46:56.629Z,36.69
2019-04-19T10:50:00.789Z,36.91
2019-04-19T10:52:50.107Z,38.21
2019-04-19T10:55:49.891Z,37.49
2019-04-19T10:58:50.609Z,35.96
2019-04-19T11:01:49.912Z,35.34
2019-04-19T11:04:51.202Z,34.96
2019-04-19T11:07:49.535Z,34.90
2019-04-19T11:10:45.465Z,34.89
2019-04-19T11:13:42.044Z,35.40
2019-04-19T11:16:39.559Z,35.53
2019-04-19T11:19:51.858Z,34.78
2019-04-19T11:22:32.901Z,35.07
2019-04-19T11:25:28.636Z,33.78
2019-04-19T11:28:25.358Z,33.28
2019-04-19T11:31:27.764Z,32.78
2019-04-19T11:34:24.987Z,32.67
2019-04-19T11:37:20.277Z,32.27
2019-04-19T11:40:17.413Z,33.75
2019-04-19T11:43:14.954Z,32.95
2019-04-19T11:46:10.624Z,32.60
2019-04-19T11:49:09.108Z,33.29
2019-04-19T11:52:03.500Z,32.90
2019-04-19T11:55:02.906Z,31.42
2019-04-19T11:57:59.415Z,31.08
2019-04-19T12:01:08.060Z,30.44
2019-04-19T12:04:05.856Z,31.13
2019-04-19T12:07:00.867Z,31.28
2019-04-19T12:09:58.565Z,30.73
2019-04-19T12:12:53.177Z,31.06
2019-04-19T12:15:51.068Z,30.90
2019-04-19T12:18:52.394Z,30.90
2019-04-19T12:21:50.169Z,30.50
2019-04-19T12:24:44.930Z,30.11
2019-04-19T12:27:41.889Z,30.53
2019-04-19T12:30:46.240Z,30.35
2019-04-19T12:33:37.628Z,30.21
2019-04-19T12:36:35.173Z,30.46
2019-04-19T12:39:30.502Z,29.51
2019-04-19T12:42:38.387Z,29.02
2019-04-19T12:45:33.584Z,29.00
2019-04-19T12:48:30.098Z,28.50
2019-04-19T12:51:28.069Z,29.51
2019-04-19T12:54:23.811Z,30.39
2019-04-19T12:57:20.276Z,28.57
2019-04-19T13:00:16.250Z,29.19
2019-04-19T13:03:16.246Z,28.58
2019-04-19T13:06:11.552Z,28.75
2019-04-19T13:09:08.949Z,28.08
2019-04-19T13:12:05.200Z,28.48
2019-04-19T13:15:01.956Z,28.52
2019-04-19T13:18:00.296Z,27.13
2019-04-19T13:20:55.658Z,27.40
2019-04-19T13:23:52.829Z,26.60
2019-04-19T13:26:49.851Z,26.94
2019-04-19T13:29:45.881Z,27.00
2019-04-19T13:32:42.011Z,25.85
2019-04-19T13:35:39.408Z,26.17
2019-04-19T13:38:43.402Z,26.17
2019-04-19T13:41:52.625Z,26.10
2019-04-19T13:44:50.473Z,26.42
2019-04-19T13:47:46.936Z,26.79
2019-04-19T13:50:44.316Z,25.16
2019-04-19T13:53:38.565Z,23.61
2019-04-19T13:56:34.286Z,23.94
2019-04-19T13:59:42.617Z,25.12
2019-04-19T14:02:27.905Z,24.09
2019-04-19T14:05:25.910Z,24.72
2019-04-19T14:08:22.621Z,25.40
2019-04-19T14:11:19.510Z,23.75
2019-04-19T14:14:18.344Z,24.91
2019-04-19T14:17:13.757Z,25.25
2019-04-19T14:20:08.513Z,23.83
2019-04-19T14:23:03.615Z,23.06
2019-04-19T14:26:01.349Z,21.97
2019-04-19T14:28:57.071Z,22.17
2019-04-19T14:31:54.494Z,21.67
2019-04-19T14:34:51.991Z,22.10
2019-04-19T14:37:48.077Z,21.24
2019-04-19T14:40:44.561Z,21.60
2019-04-19T14:43:42.664Z,21.79
2019-04-19T14:46:42.835Z,19.99
2019-04-19T14:49:36.809Z,19.62
2019-04-19T14:52:32.603Z,20.17
2019-04-19T14:55:30.240Z,20.50
2019-04-19T14:58:25.884Z,20.56
2019-04-19T15:01:52.993Z,21.05
2019-04-19T15:04:55.855Z,21.17
2019-04-19T15:07:52.637Z,21.08
2019-04-19T15:10:47.807Z,21.25
2019-04-19T15:13:44.312Z,21.24
2019-04-19T15:16:42.999Z,20.79
2019-04-19T15:19:37.570Z,21.94
2019-04-19T15:22:34.717Z,22.21
2019-04-19T15:25:31.802Z,21.83
2019-04-19T15:28:27.180Z,21.61
2019-04-19T15:31:23.973Z,21.31
2019-04-19T15:34:19.981Z,21.30
2019-04-19T15:37:18.096Z,21.20
2019-04-19T15:40:14.042Z,22.06
2019-04-19T15:43:11.068Z,21.64
2019-04-19T15:46:09.198Z,22.58
2019-04-19T15:49:05.793Z,22.36
2019-04-19T15:52:03.962Z,21.99
2019-04-19T15:55:00.343Z,22.61
2019-04-19T15:57:56.950Z,22.84
2019-04-19T16:01:06.061Z,24.16
2019-04-19T16:04:08.018Z,24.38
2019-04-19T16:07:14.794Z,24.79
2019-04-19T16:10:20.212Z,24.34
2019-04-19T16:13:16.053Z,24.19
2019-04-19T16:16:12.472Z,24.98
2019-04-19T16:19:10.492Z,25.22
2019-04-19T16:22:07.291Z,26.34
2019-04-19T16:25:03.162Z,26.11
2019-04-19T16:27:59.067Z,25.94
2019-04-19T16:30:55.086Z,26.72
2019-04-19T16:33:50.631Z,26.95
2019-04-19T16:36:49.647Z,27.54
2019-04-19T16:39:46.438Z,26.81
2019-04-19T16:42:43.315Z,27.50
2019-04-19T16:45:39.853Z,27.55
2019-04-19T16:48:36.746Z,27.79
2019-04-19T16:51:41.863Z,28.27
2019-04-19T16:54:30.183Z,28.49
2019-04-19T16:57:29.799Z,28.36
2019-04-19T17:00:22.908Z,27.57
2019-04-19T17:03:19.521Z,26.95
2019-04-19T17:06:15.048Z,26.52
2019-04-19T17:09:10.938Z,27.38
2019-04-19T17:12:07.541Z,28.53
2019-04-19T17:15:08.682Z,28.53
2019-04-19T17:18:36.592Z,28.61
2019-04-19T17:21:46.209Z,28.96
2019-04-19T17:24:29.221Z,29.69
2019-04-19T17:27:30.535Z,29.68
2019-04-19T17:30:24.184Z,30.35
2019-04-19T17:33:20.164Z,31.02
2019-04-19T17:36:15.830Z,30.73
2019-04-19T17:39:12.920Z,31.06
2019-04-19T17:42:10.526Z,30.83
2019-04-19T17:45:05.500Z,30.72
2019-04-19T17:48:03.231Z,30.54
2019-04-19T17:51:00.282Z,30.85
2019-04-19T17:53:58.370Z,30.69
2019-04-19T17:56:57.376Z,31.76
2019-04-19T17:59:54.367Z,31.76
2019-04-19T18:02:51.070Z,30.85
2019-04-19T18:05:46.271Z,31.65
2019-04-19T18:08:46.238Z,31.70
2019-04-19T18:11:40.840Z,31.79
2019-04-19T18:14:37.883Z,32.52
2019-04-19T18:17:33.644Z,32.83
2019-04-19T18:20:30.772Z,32.87
2019-04-19T18:23:35.281Z,34.32
2019-04-19T18:26:27.092Z,34.60
2019-04-19T18:29:22.959Z,35.37
2019-04-19T18:32:27.948Z,35.96
2019-04-19T18:35:29.854Z,36.02
2019-04-19T18:38:23.293Z,35.35
2019-04-19T18:41:16.911Z,35.38
2019-04-19T18:44:23.847Z,35.36
2019-04-19T18:47:12.278Z,36.41
2019-04-19T18:50:08.623Z,38.82
2019-04-19T18:53:15.376Z,38.93
2019-04-19T18:56:03.042Z,39.18
2019-04-19T18:59:07.864Z,39.65
2019-04-19T19:01:55.598Z,39.80
2019-04-19T19:04:54.077Z,40.71
2019-04-19T19:07:49.359Z,40.71
2019-04-19T19:10:48.961Z,41.77
2019-04-19T19:13:42.815Z,41.07
2019-04-19T19:16:43.753Z,42.10
2019-04-19T19:19:40.305Z,42.03
2019-04-19T19:22:54.741Z,42.03
2019-04-19T19:25:51.248Z,42.48
2019-04-19T19:28:40.558Z,41.28
2019-04-19T19:31:37.193Z,41.54
2019-04-19T19:34:33.616Z,42.75
2019-04-19T19:37:32.044Z,43.12
2019-04-19T19:40:35.572Z,43.29
2019-04-19T19:43:39.764Z,43.85
2019-04-19T19:46:35.425Z,44.26
2019-04-19T19:49:52.491Z,44.71
2019-04-19T19:52:29.053Z,44.75
2019-04-19T19:55:26.002Z,45.48
2019-04-19T19:58:19.809Z,45.45
2019-04-19T20:01:17.450Z,45.57
2019-04-19T20:04:02.500Z,45.98
2019-04-19T20:07:03.502Z,46.03
2019-04-19T20:10:04.188Z,46.59
2019-04-19T20:12:57.584Z,46.51
2019-04-19T20:15:49.641Z,46.67
2019-04-19T20:18:50.125Z,47.19
2019-04-19T20:21:44.292Z,47.66
2019-04-19T20:24:52.745Z,48.13
2019-04-19T20:27:41.628Z,47.09
2019-04-19T20:30:38.785Z,47.42
2019-04-19T20:33:35.336Z,48.04
2019-04-19T20:36:25.194Z,49.06
2019-04-19T20:39:25.117Z,48.75
2019-04-19T20:42:25.269Z,49.34
2019-04-19T20:45:26.511Z,50.18
2019-04-19T20:48:18.052Z,50.54
2019-04-19T20:51:15.596Z,50.74
2019-04-19T20:54:32.400Z,51.15
2019-04-19T20:57:29.926Z,51.10
2019-04-19T21:00:08.378Z,51.37
2019-04-19T21:03:04.090Z,51.80
2019-04-19T21:06:01.936Z,51.63
2019-04-19T21:08:57.827Z,51.34
2019-04-19T21:11:54.297Z,52.04
2019-04-19T21:14:51.007Z,51.72
2019-04-19T21:17:49.664Z,52.01
2019-04-19T21:20:45.234Z,52.13
2019-04-19T21:23:40.530Z,52.73
2019-04-19T21:26:37.902Z,52.77
2019-04-19T21:29:35.184Z,52.26
2019-04-19T21:32:32.171Z,52.08
2019-04-19T21:35:25.198Z,51.57
2019-04-19T21:38:24.801Z,51.56
2019-04-19T21:41:27.841Z,51.26
2019-04-19T21:44:21.645Z,50.74
2019-04-19T21:47:15.926Z,50.08
2019-04-19T21:50:13.167Z,49.56
2019-04-19T21:53:11.015Z,49.60
2019-04-19T21:56:12.259Z,49.32
2019-04-19T21:59:02.530Z,49.40
2019-04-19T22:01:59.352Z,49.65
2019-04-19T22:04:56.926Z,50.07
2019-04-19T22:07:52.185Z,49.92
2019-04-19T22:10:50.437Z,49.60
2019-04-19T22:13:48.887Z,49.25
2019-04-19T22:16:44.990Z,49.27
2019-04-19T22:19:38.687Z,49.08
2019-04-19T22:22:35.313Z,49.18
2019-04-19T22:25:42.170Z,48.96
2019-04-19T22:28:25.934Z,48.94
2019-04-19T22:31:28.897Z,48.74
2019-04-19T22:34:19.117Z,48.93
2019-04-19T22:37:23.489Z,48.67
2019-04-19T22:40:11.069Z,48.68
2019-04-19T22:43:11.501Z,49.03
2019-04-19T22:46:08.833Z,49.00
2019-04-19T22:49:05.575Z,49.27
2019-04-19T22:52:06.905Z,49.16
2019-04-19T22:55:03.155Z,49.32
2019-04-19T22:57:56.657Z,49.34
2019-04-19T23:00:51.660Z,49.58
2019-04-19T23:03:50.554Z,49.66
2019-04-19T23:06:46.938Z,49.42
2019-04-19T23:09:42.226Z,49.56
2019-04-19T23:12:39.677Z,49.83
2019-04-19T23:15:35.957Z,49.81
2019-04-19T23:18:32.540Z,49.90
2019-04-19T23:21:28.810Z,50.05
2019-04-19T23:24:25.126Z,50.13
2019-04-19T23:27:34.541Z,50.28
2019-04-19T23:30:28.844Z,50.29
2019-04-19T23:33:24.488Z,50.35
2019-04-19T23:36:24.127Z,50.52
2019-04-19T23:39:16.033Z,50.52
2019-04-19T23:42:15.111Z,50.72
2019-04-19T23:45:10.371Z,50.87
2019-04-19T23:48:06.778Z,50.71
2019-04-19T23:51:04.273Z,50.95
2019-04-19T23:54:03.597Z,51.03
2019-04-19T23:57:04.431Z,51.09
2019-04-19T23:59:59.786Z,51.14
